sensor_id;sensor_type;location;lat;lon;timestamp;P1;durP1;ratioP1;P2;durP2;ratioP2
2001;SDS011;1003;48.002;7.788;2022-07-23T00:00:20;9.73;;;6.40;;
2001;SDS011;1003;48.002;7.788;2022-07-23T00:02:48;7.13;;;6.10;;
2001;SDS011;1003;48.002;7.788;2022-07-23T00:05:16;7.20;;;6.50;;
2001;SDS011;1003;48.002;7.788;2022-07-23T00:07:43;9.20;;;6.37;;
2001;SDS011;1003;48.002;7.788;2022-07-23T00:10:10;8.03;;;6.50;;
2001;SDS011;1003;48.002;7.788;2022-07-23T00:12:37;8.43;;;6.57;;
2001;SDS011;1003;48.002;7.788;2022-07-23T00:15:06;7.07;;;6.37;;
2001;SDS011;1003;48.002;7.788;2022-07-23T00:17:34;8.17;;;6.80;;
2001;SDS011;1003;48.002;7.788;2022-07-23T00:20:03;13.10;;;6.60;;
2001;SDS011;1003;48.002;7.788;2022-07-23T00:22:32;8.60;;;6.50;;
2001;SDS011;1003;48.002;7.788;2022-07-23T00:24:59;6.57;;;5.80;;
2001;SDS011;1003;48.002;7.788;2022-07-23T00:27:27;8.13;;;6.27;;
2001;SDS011;1003;48.002;7.788;2022-07-23T00:29:54;7.43;;;6.27;;
2001;SDS011;1003;48.002;7.788;2022-07-23T00:32:21;7.07;;;6.03;;
2001;SDS011;1003;48.002;7.788;2022-07-23T00:34:48;7.30;;;6.57;;
2001;SDS011;1003;48.002;7.788;2022-07-23T00:37:17;7.03;;;6.27;;
2001;SDS011;1003;48.002;7.788;2022-07-23T00:39:44;6.97;;;6.27;;
2001;SDS011;1003;48.002;7.788;2022-07-23T00:42:11;7.60;;;5.90;;
2001;SDS011;1003;48.002;7.788;2022-07-23T00:44:38;6.53;;;5.83;;
2001;SDS011;1003;48.002;7.788;2022-07-23T00:47:05;6.97;;;5.53;;
2001;SDS011;1003;48.002;7.788;2022-07-23T00:49:32;6.17;;;5.57;;
2001;SDS011;1003;48.002;7.788;2022-07-23T00:52:00;6.13;;;5.47;;
2001;SDS011;1003;48.002;7.788;2022-07-23T00:54:30;8.13;;;5.60;;
2001;SDS011;1003;48.002;7.788;2022-07-23T00:56:57;8.03;;;5.53;;
2001;SDS011;1003;48.002;7.788;2022-07-23T00:59:25;8.20;;;5.63;;
2001;SDS011;1003;48.002;7.788;2022-07-23T01:01:52;8.30;;;5.80;;
2001;SDS011;1003;48.002;7.788;2022-07-23T01:04:19;7.17;;;5.47;;
2001;SDS011;1003;48.002;7.788;2022-07-23T01:06:46;6.87;;;5.70;;
2001;SDS011;1003;48.002;7.788;2022-07-23T01:09:13;6.33;;;5.63;;
2001;SDS011;1003;48.002;7.788;2022-07-23T01:11:42;7.33;;;5.50;;
2001;SDS011;1003;48.002;7.788;2022-07-23T01:14:10;6.27;;;5.47;;
2001;SDS011;1003;48.002;7.788;2022-07-23T01:16:41;8.93;;;5.93;;
2001;SDS011;1003;48.002;7.788;2022-07-23T01:19:10;8.37;;;6.20;;
2001;SDS011;1003;48.002;7.788;2022-07-23T01:21:38;7.50;;;6.10;;
2001;SDS011;1003;48.002;7.788;2022-07-23T01:24:09;11.57;;;6.97;;
2001;SDS011;1003;48.002;7.788;2022-07-23T01:26:37;10.43;;;7.37;;
2001;SDS011;1003;48.002;7.788;2022-07-23T01:29:07;10.07;;;7.37;;
2001;SDS011;1003;48.002;7.788;2022-07-23T01:31:35;10.50;;;7.30;;
2001;SDS011;1003;48.002;7.788;2022-07-23T01:34:02;9.90;;;6.60;;
2001;SDS011;1003;48.002;7.788;2022-07-23T01:36:32;8.37;;;6.67;;
2001;SDS011;1003;48.002;7.788;2022-07-23T01:38:59;10.23;;;7.10;;
2001;SDS011;1003;48.002;7.788;2022-07-23T01:41:28;9.17;;;6.90;;
2001;SDS011;1003;48.002;7.788;2022-07-23T01:43:55;8.00;;;6.70;;
2001;SDS011;1003;48.002;7.788;2022-07-23T01:46:23;10.23;;;7.07;;
2001;SDS011;1003;48.002;7.788;2022-07-23T01:48:50;10.20;;;7.50;;
2001;SDS011;1003;48.002;7.788;2022-07-23T01:51:17;13.00;;;8.17;;
2001;SDS011;1003;48.002;7.788;2022-07-23T01:53:44;9.97;;;7.37;;
2001;SDS011;1003;48.002;7.788;2022-07-23T01:56:11;9.53;;;7.33;;
2001;SDS011;1003;48.002;7.788;2022-07-23T01:58:41;10.70;;;8.00;;
2001;SDS011;1003;48.002;7.788;2022-07-23T02:01:08;9.20;;;7.47;;
2001;SDS011;1003;48.002;7.788;2022-07-23T02:03:35;10.27;;;7.33;;
2001;SDS011;1003;48.002;7.788;2022-07-23T02:06:02;8.37;;;7.23;;
2001;SDS011;1003;48.002;7.788;2022-07-23T02:08:29;9.10;;;7.50;;
2001;SDS011;1003;48.002;7.788;2022-07-23T02:10:57;8.80;;;7.23;;
2001;SDS011;1003;48.002;7.788;2022-07-23T02:13:24;10.00;;;7.37;;
2001;SDS011;1003;48.002;7.788;2022-07-23T02:15:52;9.53;;;7.27;;
2001;SDS011;1003;48.002;7.788;2022-07-23T02:18:19;10.10;;;7.20;;
2001;SDS011;1003;48.002;7.788;2022-07-23T02:20:46;8.70;;;6.83;;
2001;SDS011;1003;48.002;7.788;2022-07-23T02:23:13;11.33;;;7.87;;
2001;SDS011;1003;48.002;7.788;2022-07-23T02:25:40;11.43;;;8.37;;
2001;SDS011;1003;48.002;7.788;2022-07-23T02:28:07;8.47;;;7.07;;
2001;SDS011;1003;48.002;7.788;2022-07-23T02:30:34;8.67;;;7.10;;
2001;SDS011;1003;48.002;7.788;2022-07-23T02:33:04;7.23;;;6.40;;
2001;SDS011;1003;48.002;7.788;2022-07-23T02:35:31;8.33;;;6.90;;
2001;SDS011;1003;48.002;7.788;2022-07-23T02:37:58;9.53;;;7.80;;
2001;SDS011;1003;48.002;7.788;2022-07-23T02:40:25;9.73;;;7.63;;
2001;SDS011;1003;48.002;7.788;2022-07-23T02:42:52;8.53;;;7.00;;
2001;SDS011;1003;48.002;7.788;2022-07-23T02:45:19;8.47;;;7.13;;
2001;SDS011;1003;48.002;7.788;2022-07-23T02:47:46;9.27;;;6.87;;
2001;SDS011;1003;48.002;7.788;2022-07-23T02:50:15;9.90;;;7.20;;
2001;SDS011;1003;48.002;7.788;2022-07-23T02:52:42;9.87;;;7.67;;
2001;SDS011;1003;48.002;7.788;2022-07-23T02:55:09;11.37;;;8.23;;
2001;SDS011;1003;48.002;7.788;2022-07-23T02:57:36;10.37;;;7.80;;
2001;SDS011;1003;48.002;7.788;2022-07-23T03:00:04;11.63;;;7.73;;
2001;SDS011;1003;48.002;7.788;2022-07-23T03:02:33;9.63;;;7.43;;
2001;SDS011;1003;48.002;7.788;2022-07-23T03:05:00;12.17;;;8.60;;
2001;SDS011;1003;48.002;7.788;2022-07-23T03:07:29;9.27;;;7.67;;
2001;SDS011;1003;48.002;7.788;2022-07-23T03:09:56;10.27;;;7.40;;
2001;SDS011;1003;48.002;7.788;2022-07-23T03:12:23;10.13;;;7.70;;
2001;SDS011;1003;48.002;7.788;2022-07-23T03:14:50;9.40;;;7.37;;
2001;SDS011;1003;48.002;7.788;2022-07-23T03:17:17;9.23;;;7.20;;
2001;SDS011;1003;48.002;7.788;2022-07-23T03:19:44;9.40;;;7.30;;
2001;SDS011;1003;48.002;7.788;2022-07-23T03:22:11;9.80;;;7.20;;
2001;SDS011;1003;48.002;7.788;2022-07-23T03:24:40;11.83;;;8.67;;
2001;SDS011;1003;48.002;7.788;2022-07-23T03:27:22;10.53;;;8.30;;
2001;SDS011;1003;48.002;7.788;2022-07-23T03:29:53;9.23;;;7.90;;
2001;SDS011;1003;48.002;7.788;2022-07-23T03:32:22;10.27;;;7.73;;
2001;SDS011;1003;48.002;7.788;2022-07-23T03:34:50;9.87;;;7.10;;
2001;SDS011;1003;48.002;7.788;2022-07-23T03:37:19;9.10;;;7.57;;
2001;SDS011;1003;48.002;7.788;2022-07-23T03:39:48;8.60;;;7.57;;
2001;SDS011;1003;48.002;7.788;2022-07-23T03:42:15;9.83;;;7.70;;
2001;SDS011;1003;48.002;7.788;2022-07-23T03:44:42;8.87;;;7.77;;
2001;SDS011;1003;48.002;7.788;2022-07-23T03:47:09;9.30;;;7.40;;
2001;SDS011;1003;48.002;7.788;2022-07-23T03:49:36;9.57;;;8.17;;
2001;SDS011;1003;48.002;7.788;2022-07-23T03:52:03;9.20;;;8.17;;
2001;SDS011;1003;48.002;7.788;2022-07-23T03:54:31;11.17;;;8.73;;
2001;SDS011;1003;48.002;7.788;2022-07-23T03:56:59;11.07;;;9.10;;
2001;SDS011;1003;48.002;7.788;2022-07-23T03:59:27;11.07;;;8.97;;
2001;SDS011;1003;48.002;7.788;2022-07-23T04:01:54;10.87;;;8.53;;
2001;SDS011;1003;48.002;7.788;2022-07-23T04:04:21;11.43;;;8.37;;
2001;SDS011;1003;48.002;7.788;2022-07-23T04:06:48;10.80;;;7.67;;
2001;SDS011;1003;48.002;7.788;2022-07-23T04:09:15;10.07;;;8.53;;
2001;SDS011;1003;48.002;7.788;2022-07-23T04:11:42;9.47;;;7.90;;
2001;SDS011;1003;48.002;7.788;2022-07-23T04:14:10;9.80;;;8.27;;
2001;SDS011;1003;48.002;7.788;2022-07-23T04:16:37;11.77;;;7.93;;
2001;SDS011;1003;48.002;7.788;2022-07-23T04:19:04;11.57;;;8.77;;
2001;SDS011;1003;48.002;7.788;2022-07-23T04:21:31;10.47;;;8.23;;
2001;SDS011;1003;48.002;7.788;2022-07-23T04:23:59;10.53;;;8.60;;
2001;SDS011;1003;48.002;7.788;2022-07-23T04:26:26;9.93;;;8.83;;
2001;SDS011;1003;48.002;7.788;2022-07-23T04:28:53;10.17;;;8.63;;
2001;SDS011;1003;48.002;7.788;2022-07-23T04:31:21;10.83;;;8.70;;
2001;SDS011;1003;48.002;7.788;2022-07-23T04:33:48;11.10;;;8.60;;
2001;SDS011;1003;48.002;7.788;2022-07-23T04:36:15;13.73;;;8.97;;
2001;SDS011;1003;48.002;7.788;2022-07-23T04:38:43;11.27;;;8.60;;
2001;SDS011;1003;48.002;7.788;2022-07-23T04:41:10;11.23;;;8.83;;
2001;SDS011;1003;48.002;7.788;2022-07-23T04:43:37;10.70;;;8.43;;
2001;SDS011;1003;48.002;7.788;2022-07-23T04:46:04;12.33;;;8.97;;
2001;SDS011;1003;48.002;7.788;2022-07-23T04:48:32;10.53;;;8.53;;
2001;SDS011;1003;48.002;7.788;2022-07-23T04:50:59;10.67;;;7.77;;
2001;SDS011;1003;48.002;7.788;2022-07-23T04:53:27;10.73;;;7.43;;
2001;SDS011;1003;48.002;7.788;2022-07-23T04:55:54;9.03;;;7.13;;
2001;SDS011;1003;48.002;7.788;2022-07-23T04:58:21;10.20;;;7.67;;
2001;SDS011;1003;48.002;7.788;2022-07-23T05:00:48;10.60;;;8.23;;
2001;SDS011;1003;48.002;7.788;2022-07-23T05:03:15;10.50;;;9.17;;
2001;SDS011;1003;48.002;7.788;2022-07-23T05:05:44;11.00;;;7.77;;
2001;SDS011;1003;48.002;7.788;2022-07-23T05:08:11;10.70;;;8.40;;
2001;SDS011;1003;48.002;7.788;2022-07-23T05:10:39;9.83;;;7.47;;
2001;SDS011;1003;48.002;7.788;2022-07-23T05:13:06;9.73;;;7.17;;
2001;SDS011;1003;48.002;7.788;2022-07-23T05:15:33;9.90;;;7.93;;
2001;SDS011;1003;48.002;7.788;2022-07-23T05:18:00;9.10;;;7.17;;
2001;SDS011;1003;48.002;7.788;2022-07-23T05:20:27;9.43;;;6.97;;
2001;SDS011;1003;48.002;7.788;2022-07-23T05:22:56;8.83;;;6.90;;
2001;SDS011;1003;48.002;7.788;2022-07-23T05:25:23;12.70;;;7.60;;
2001;SDS011;1003;48.002;7.788;2022-07-23T05:27:50;8.30;;;7.23;;
2001;SDS011;1003;48.002;7.788;2022-07-23T05:30:17;9.47;;;7.00;;
2001;SDS011;1003;48.002;7.788;2022-07-23T05:32:45;8.27;;;7.30;;
2001;SDS011;1003;48.002;7.788;2022-07-23T05:35:12;8.83;;;7.30;;
2001;SDS011;1003;48.002;7.788;2022-07-23T05:37:40;9.07;;;7.23;;
2001;SDS011;1003;48.002;7.788;2022-07-23T05:40:09;7.97;;;6.93;;
2001;SDS011;1003;48.002;7.788;2022-07-23T05:42:38;9.57;;;6.80;;
2001;SDS011;1003;48.002;7.788;2022-07-23T05:45:07;9.40;;;7.60;;
2001;SDS011;1003;48.002;7.788;2022-07-23T05:47:42;7.93;;;7.10;;
2001;SDS011;1003;48.002;7.788;2022-07-23T05:50:11;11.53;;;7.53;;
2001;SDS011;1003;48.002;7.788;2022-07-23T05:52:40;8.40;;;7.37;;
2001;SDS011;1003;48.002;7.788;2022-07-23T05:55:09;9.70;;;7.90;;
2001;SDS011;1003;48.002;7.788;2022-07-23T05:57:38;7.90;;;6.80;;
2001;SDS011;1003;48.002;7.788;2022-07-23T06:00:07;8.27;;;6.67;;
2001;SDS011;1003;48.002;7.788;2022-07-23T06:02:37;7.63;;;6.70;;
2001;SDS011;1003;48.002;7.788;2022-07-23T06:05:05;8.10;;;6.67;;
2001;SDS011;1003;48.002;7.788;2022-07-23T06:07:34;9.50;;;6.70;;
2001;SDS011;1003;48.002;7.788;2022-07-23T06:10:01;8.00;;;6.93;;
2001;SDS011;1003;48.002;7.788;2022-07-23T06:12:31;7.43;;;6.73;;
2001;SDS011;1003;48.002;7.788;2022-07-23T06:14:58;6.73;;;6.00;;
2001;SDS011;1003;48.002;7.788;2022-07-23T06:17:26;9.80;;;6.77;;
2001;SDS011;1003;48.002;7.788;2022-07-23T06:19:54;7.67;;;6.97;;
2001;SDS011;1003;48.002;7.788;2022-07-23T06:22:21;7.27;;;6.50;;
2001;SDS011;1003;48.002;7.788;2022-07-23T06:24:49;7.67;;;6.83;;
2001;SDS011;1003;48.002;7.788;2022-07-23T06:27:17;7.90;;;7.07;;
2001;SDS011;1003;48.002;7.788;2022-07-23T06:29:45;9.23;;;7.33;;
2001;SDS011;1003;48.002;7.788;2022-07-23T06:32:12;7.13;;;6.40;;
2001;SDS011;1003;48.002;7.788;2022-07-23T06:34:39;9.03;;;7.37;;
2001;SDS011;1003;48.002;7.788;2022-07-23T06:37:06;8.27;;;6.67;;
2001;SDS011;1003;48.002;7.788;2022-07-23T06:39:33;8.43;;;7.00;;
2001;SDS011;1003;48.002;7.788;2022-07-23T06:42:01;8.67;;;6.60;;
2001;SDS011;1003;48.002;7.788;2022-07-23T06:44:28;8.17;;;7.07;;
2001;SDS011;1003;48.002;7.788;2022-07-23T06:46:56;8.63;;;5.97;;
2001;SDS011;1003;48.002;7.788;2022-07-23T06:49:23;7.97;;;7.03;;
2001;SDS011;1003;48.002;7.788;2022-07-23T06:51:50;7.78;;;6.25;;
2001;SDS011;1003;48.002;7.788;2022-07-23T06:54:17;7.55;;;6.20;;
2001;SDS011;1003;48.002;7.788;2022-07-23T06:56:44;9.48;;;7.20;;
2001;SDS011;1003;48.002;7.788;2022-07-23T06:59:11;7.43;;;6.72;;
2001;SDS011;1003;48.002;7.788;2022-07-23T07:01:38;7.50;;;6.47;;
2001;SDS011;1003;48.002;7.788;2022-07-23T07:04:07;7.57;;;6.53;;
2001;SDS011;1003;48.002;7.788;2022-07-23T07:06:34;8.05;;;6.80;;
2001;SDS011;1003;48.002;7.788;2022-07-23T07:09:01;8.48;;;6.70;;
2001;SDS011;1003;48.002;7.788;2022-07-23T07:11:28;7.28;;;6.50;;
2001;SDS011;1003;48.002;7.788;2022-07-23T07:13:55;9.23;;;7.97;;
2001;SDS011;1003;48.002;7.788;2022-07-23T07:16:23;8.40;;;6.80;;
2001;SDS011;1003;48.002;7.788;2022-07-23T07:18:50;7.63;;;6.43;;
2001;SDS011;1003;48.002;7.788;2022-07-23T07:21:18;9.33;;;7.80;;
2001;SDS011;1003;48.002;7.788;2022-07-23T07:23:45;9.07;;;7.03;;
2001;SDS011;1003;48.002;7.788;2022-07-23T07:26:12;8.03;;;7.23;;
2001;SDS011;1003;48.002;7.788;2022-07-23T07:28:39;7.20;;;6.50;;
2001;SDS011;1003;48.002;7.788;2022-07-23T07:31:07;8.60;;;7.17;;
2001;SDS011;1003;48.002;7.788;2022-07-23T07:33:34;7.60;;;6.87;;
2001;SDS011;1003;48.002;7.788;2022-07-23T07:36:01;8.53;;;7.37;;
2001;SDS011;1003;48.002;7.788;2022-07-23T07:38:30;8.00;;;7.20;;
2001;SDS011;1003;48.002;7.788;2022-07-23T07:40:57;8.13;;;6.97;;
2001;SDS011;1003;48.002;7.788;2022-07-23T07:43:24;7.83;;;7.03;;
2001;SDS011;1003;48.002;7.788;2022-07-23T07:45:52;10.10;;;7.03;;
2001;SDS011;1003;48.002;7.788;2022-07-23T07:48:19;7.43;;;6.20;;
2001;SDS011;1003;48.002;7.788;2022-07-23T07:50:46;7.63;;;6.83;;
2001;SDS011;1003;48.002;7.788;2022-07-23T07:53:13;7.03;;;6.43;;
2001;SDS011;1003;48.002;7.788;2022-07-23T07:55:42;7.40;;;6.70;;
2001;SDS011;1003;48.002;7.788;2022-07-23T07:58:09;7.23;;;6.53;;
2001;SDS011;1003;48.002;7.788;2022-07-23T08:00:36;7.37;;;6.47;;
2001;SDS011;1003;48.002;7.788;2022-07-23T08:03:03;6.70;;;6.00;;
2001;SDS011;1003;48.002;7.788;2022-07-23T08:05:31;7.87;;;6.70;;
2001;SDS011;1003;48.002;7.788;2022-07-23T08:07:58;7.00;;;6.30;;
2001;SDS011;1003;48.002;7.788;2022-07-23T08:10:27;7.03;;;6.33;;
2001;SDS011;1003;48.002;7.788;2022-07-23T08:12:58;7.60;;;6.60;;
2001;SDS011;1003;48.002;7.788;2022-07-23T08:15:26;8.63;;;6.33;;
2001;SDS011;1003;48.002;7.788;2022-07-23T08:17:56;7.07;;;6.37;;
2001;SDS011;1003;48.002;7.788;2022-07-23T08:20:24;6.97;;;6.28;;
2001;SDS011;1003;48.002;7.788;2022-07-23T08:22:54;7.20;;;6.45;;
2001;SDS011;1003;48.002;7.788;2022-07-23T08:25:25;7.28;;;6.57;;
2001;SDS011;1003;48.002;7.788;2022-07-23T08:27:53;8.77;;;6.55;;
2001;SDS011;1003;48.002;7.788;2022-07-23T08:30:23;6.50;;;5.90;;
2001;SDS011;1003;48.002;7.788;2022-07-23T08:32:53;7.07;;;6.38;;
2001;SDS011;1003;48.002;7.788;2022-07-23T08:35:23;6.47;;;5.75;;
2001;SDS011;1003;48.002;7.788;2022-07-23T08:37:53;6.00;;;5.47;;
2001;SDS011;1003;48.002;7.788;2022-07-23T08:40:21;6.80;;;6.10;;
2001;SDS011;1003;48.002;7.788;2022-07-23T08:42:49;6.88;;;6.13;;
2001;SDS011;1003;48.002;7.788;2022-07-23T08:45:18;6.72;;;6.00;;
2001;SDS011;1003;48.002;7.788;2022-07-23T08:47:50;7.50;;;6.80;;
2001;SDS011;1003;48.002;7.788;2022-07-23T08:50:20;8.63;;;6.50;;
2001;SDS011;1003;48.002;7.788;2022-07-23T08:52:48;7.80;;;6.50;;
2001;SDS011;1003;48.002;7.788;2022-07-23T08:55:17;8.13;;;6.47;;
2001;SDS011;1003;48.002;7.788;2022-07-23T08:57:46;7.93;;;6.60;;
2001;SDS011;1003;48.002;7.788;2022-07-23T09:00:16;7.73;;;6.30;;
2001;SDS011;1003;48.002;7.788;2022-07-23T09:02:45;6.90;;;6.23;;
2001;SDS011;1003;48.002;7.788;2022-07-23T09:05:15;7.50;;;6.73;;
2001;SDS011;1003;48.002;7.788;2022-07-23T09:10:45;7.67;;;6.27;;
2001;SDS011;1003;48.002;7.788;2022-07-23T09:13:26;7.50;;;6.70;;
2001;SDS011;1003;48.002;7.788;2022-07-23T09:16:05;6.80;;;6.20;;
2001;SDS011;1003;48.002;7.788;2022-07-23T09:18:38;6.93;;;6.23;;
2001;SDS011;1003;48.002;7.788;2022-07-23T09:21:24;8.43;;;6.25;;
2001;SDS011;1003;48.002;7.788;2022-07-23T09:23:55;6.20;;;5.60;;
2001;SDS011;1003;48.002;7.788;2022-07-23T09:26:34;9.23;;;6.57;;
2001;SDS011;1003;48.002;7.788;2022-07-23T09:29:05;7.72;;;6.38;;
2001;SDS011;1003;48.002;7.788;2022-07-23T09:31:43;6.45;;;5.30;;
2001;SDS011;1003;48.002;7.788;2022-07-23T09:34:17;6.53;;;5.90;;
2001;SDS011;1003;48.002;7.788;2022-07-23T09:36:49;7.20;;;6.50;;
2001;SDS011;1003;48.002;7.788;2022-07-23T09:39:24;6.80;;;6.10;;
2001;SDS011;1003;48.002;7.788;2022-07-23T09:41:54;7.18;;;6.50;;
2001;SDS011;1003;48.002;7.788;2022-07-23T09:44:24;6.35;;;5.72;;
2001;SDS011;1003;48.002;7.788;2022-07-23T09:46:52;7.30;;;5.75;;
2001;SDS011;1003;48.002;7.788;2022-07-23T09:49:26;7.88;;;6.10;;
2001;SDS011;1003;48.002;7.788;2022-07-23T09:51:56;6.05;;;5.38;;
2001;SDS011;1003;48.002;7.788;2022-07-23T09:54:28;6.75;;;6.07;;
2001;SDS011;1003;48.002;7.788;2022-07-23T09:56:59;6.85;;;6.13;;
2001;SDS011;1003;48.002;7.788;2022-07-23T09:59:32;6.73;;;5.50;;
2001;SDS011;1003;48.002;7.788;2022-07-23T10:02:02;6.30;;;5.63;;
2001;SDS011;1003;48.002;7.788;2022-07-23T10:04:31;6.75;;;6.03;;
2001;SDS011;1003;48.002;7.788;2022-07-23T10:07:01;6.93;;;6.18;;
2001;SDS011;1003;48.002;7.788;2022-07-23T10:09:33;7.87;;;6.67;;
2001;SDS011;1003;48.002;7.788;2022-07-23T10:12:04;6.60;;;5.50;;
2001;SDS011;1003;48.002;7.788;2022-07-23T10:14:47;6.77;;;6.10;;
2001;SDS011;1003;48.002;7.788;2022-07-23T10:17:14;6.63;;;6.00;;
2001;SDS011;1003;48.002;7.788;2022-07-23T10:19:41;6.00;;;5.40;;
2001;SDS011;1003;48.002;7.788;2022-07-23T10:22:13;7.38;;;5.60;;
2001;SDS011;1003;48.002;7.788;2022-07-23T10:24:59;7.50;;;6.27;;
2001;SDS011;1003;48.002;7.788;2022-07-23T10:30:45;6.07;;;5.47;;
2001;SDS011;1003;48.002;7.788;2022-07-23T10:33:32;8.15;;;6.30;;
2001;SDS011;1003;48.002;7.788;2022-07-23T10:36:22;7.10;;;5.53;;
2001;SDS011;1003;48.002;7.788;2022-07-23T10:39:07;6.25;;;5.43;;
2001;SDS011;1003;48.002;7.788;2022-07-23T10:41:41;6.68;;;6.05;;
2001;SDS011;1003;48.002;7.788;2022-07-23T10:44:09;6.88;;;5.78;;
2001;SDS011;1003;48.002;7.788;2022-07-23T10:46:53;6.57;;;5.88;;
2001;SDS011;1003;48.002;7.788;2022-07-23T10:49:40;6.60;;;5.85;;
2001;SDS011;1003;48.002;7.788;2022-07-23T10:52:18;6.05;;;5.45;;
2001;SDS011;1003;48.002;7.788;2022-07-23T10:54:52;6.18;;;5.57;;
2001;SDS011;1003;48.002;7.788;2022-07-23T10:57:22;7.32;;;6.43;;
2001;SDS011;1003;48.002;7.788;2022-07-23T11:00:08;6.05;;;5.45;;
2001;SDS011;1003;48.002;7.788;2022-07-23T11:02:43;6.93;;;6.22;;
2001;SDS011;1003;48.002;7.788;2022-07-23T11:05:12;6.78;;;6.18;;
2001;SDS011;1003;48.002;7.788;2022-07-23T11:10:44;7.10;;;6.50;;
2001;SDS011;1003;48.002;7.788;2022-07-23T11:13:28;7.63;;;6.90;;
2001;SDS011;1003;48.002;7.788;2022-07-23T11:16:21;8.17;;;6.50;;
2001;SDS011;1003;48.002;7.788;2022-07-23T11:19:05;6.85;;;6.22;;
2001;SDS011;1003;48.002;7.788;2022-07-23T11:21:44;7.47;;;6.77;;
2001;SDS011;1003;48.002;7.788;2022-07-23T11:24:20;7.13;;;6.43;;
2001;SDS011;1003;48.002;7.788;2022-07-23T11:27:01;8.03;;;7.20;;
2001;SDS011;1003;48.002;7.788;2022-07-23T11:29:48;7.30;;;6.60;;
2001;SDS011;1003;48.002;7.788;2022-07-23T11:35:03;6.77;;;6.07;;
2001;SDS011;1003;48.002;7.788;2022-07-23T11:37:50;9.52;;;7.18;;
2001;SDS011;1003;48.002;7.788;2022-07-23T11:40:23;6.93;;;6.23;;
2001;SDS011;1003;48.002;7.788;2022-07-23T11:42:55;6.93;;;6.07;;
2001;SDS011;1003;48.002;7.788;2022-07-23T11:45:28;7.03;;;6.32;;
2001;SDS011;1003;48.002;7.788;2022-07-23T11:48:00;7.00;;;6.40;;
2001;SDS011;1003;48.002;7.788;2022-07-23T11:50:28;7.50;;;6.80;;
2001;SDS011;1003;48.002;7.788;2022-07-23T11:52:56;7.85;;;6.75;;
2001;SDS011;1003;48.002;7.788;2022-07-23T11:55:23;7.53;;;6.72;;
2001;SDS011;1003;48.002;7.788;2022-07-23T11:57:51;7.30;;;6.40;;
2001;SDS011;1003;48.002;7.788;2022-07-23T12:00:21;8.25;;;7.00;;
2001;SDS011;1003;48.002;7.788;2022-07-23T12:02:51;8.27;;;7.30;;
2001;SDS011;1003;48.002;7.788;2022-07-23T12:05:24;11.45;;;10.10;;
2001;SDS011;1003;48.002;7.788;2022-07-23T12:07:55;7.57;;;6.70;;
2001;SDS011;1003;48.002;7.788;2022-07-23T12:10:25;7.73;;;6.73;;
2001;SDS011;1003;48.002;7.788;2022-07-23T12:12:54;9.05;;;7.25;;
2001;SDS011;1003;48.002;7.788;2022-07-23T12:15:25;9.27;;;7.43;;
2001;SDS011;1003;48.002;7.788;2022-07-23T12:17:58;8.17;;;7.37;;
2001;SDS011;1003;48.002;7.788;2022-07-23T12:20:27;9.23;;;7.30;;
2001;SDS011;1003;48.002;7.788;2022-07-23T12:22:58;8.40;;;7.60;;
2001;SDS011;1003;48.002;7.788;2022-07-23T12:25:28;8.10;;;7.30;;
2001;SDS011;1003;48.002;7.788;2022-07-23T12:27:58;8.25;;;7.45;;
2001;SDS011;1003;48.002;7.788;2022-07-23T12:30:31;7.93;;;6.73;;
2001;SDS011;1003;48.002;7.788;2022-07-23T12:33:03;8.30;;;7.27;;
2001;SDS011;1003;48.002;7.788;2022-07-23T12:35:33;8.40;;;7.47;;
2001;SDS011;1003;48.002;7.788;2022-07-23T12:38:04;8.20;;;6.67;;
2001;SDS011;1003;48.002;7.788;2022-07-23T12:40:33;8.00;;;7.20;;
2001;SDS011;1003;48.002;7.788;2022-07-23T12:43:04;8.67;;;7.27;;
2001;SDS011;1003;48.002;7.788;2022-07-23T12:45:46;8.30;;;7.40;;
2001;SDS011;1003;48.002;7.788;2022-07-23T12:48:20;8.07;;;6.93;;
2001;SDS011;1003;48.002;7.788;2022-07-23T12:50:52;7.87;;;7.07;;
2001;SDS011;1003;48.002;7.788;2022-07-23T12:53:25;10.17;;;7.00;;
2001;SDS011;1003;48.002;7.788;2022-07-23T12:55:59;7.50;;;6.70;;
2001;SDS011;1003;48.002;7.788;2022-07-23T12:58:40;9.03;;;7.00;;
2001;SDS011;1003;48.002;7.788;2022-07-23T13:01:25;7.40;;;6.17;;
2001;SDS011;1003;48.002;7.788;2022-07-23T13:03:55;8.57;;;7.67;;
2001;SDS011;1003;48.002;7.788;2022-07-23T13:06:25;9.40;;;7.63;;
2001;SDS011;1003;48.002;7.788;2022-07-23T13:08:53;7.97;;;6.93;;
2001;SDS011;1003;48.002;7.788;2022-07-23T13:11:20;7.80;;;7.00;;
2001;SDS011;1003;48.002;7.788;2022-07-23T13:13:47;7.70;;;6.60;;
2001;SDS011;1003;48.002;7.788;2022-07-23T13:16:14;8.87;;;7.17;;
2001;SDS011;1003;48.002;7.788;2022-07-23T13:18:43;7.10;;;6.37;;
2001;SDS011;1003;48.002;7.788;2022-07-23T13:21:11;7.90;;;6.47;;
2001;SDS011;1003;48.002;7.788;2022-07-23T13:23:38;8.20;;;6.67;;
2001;SDS011;1003;48.002;7.788;2022-07-23T13:26:05;7.10;;;6.40;;
2001;SDS011;1003;48.002;7.788;2022-07-23T13:28:32;8.67;;;7.80;;
2001;SDS011;1003;48.002;7.788;2022-07-23T13:30:59;7.43;;;6.73;;
2001;SDS011;1003;48.002;7.788;2022-07-23T13:33:26;6.80;;;6.20;;
2001;SDS011;1003;48.002;7.788;2022-07-23T13:35:55;7.20;;;6.50;;
2001;SDS011;1003;48.002;7.788;2022-07-23T13:38:22;7.17;;;6.37;;
2001;SDS011;1003;48.002;7.788;2022-07-23T13:40:50;8.93;;;6.70;;
2001;SDS011;1003;48.002;7.788;2022-07-23T13:43:18;8.40;;;7.33;;
2001;SDS011;1003;48.002;7.788;2022-07-23T13:45:49;7.23;;;6.20;;
2001;SDS011;1003;48.002;7.788;2022-07-23T13:48:19;7.50;;;6.43;;
2001;SDS011;1003;48.002;7.788;2022-07-23T13:50:46;7.13;;;6.43;;
2001;SDS011;1003;48.002;7.788;2022-07-23T13:53:19;7.15;;;6.45;;
2001;SDS011;1003;48.002;7.788;2022-07-23T13:55:49;7.20;;;6.50;;
2001;SDS011;1003;48.002;7.788;2022-07-23T13:58:18;7.40;;;6.47;;
2001;SDS011;1003;48.002;7.788;2022-07-23T14:00:46;7.10;;;6.40;;
2001;SDS011;1003;48.002;7.788;2022-07-23T14:03:19;7.15;;;6.20;;
2001;SDS011;1003;48.002;7.788;2022-07-23T14:05:48;7.90;;;6.90;;
2001;SDS011;1003;48.002;7.788;2022-07-23T14:08:17;7.47;;;6.70;;
2001;SDS011;1003;48.002;7.788;2022-07-23T14:10:44;6.95;;;6.35;;
2001;SDS011;1003;48.002;7.788;2022-07-23T14:13:11;7.50;;;6.57;;
2001;SDS011;1003;48.002;7.788;2022-07-23T14:15:38;7.55;;;6.82;;
2001;SDS011;1003;48.002;7.788;2022-07-23T14:18:06;7.28;;;6.68;;
2001;SDS011;1003;48.002;7.788;2022-07-23T14:20:33;7.95;;;6.50;;
2001;SDS011;1003;48.002;7.788;2022-07-23T14:23:00;8.38;;;7.30;;
2001;SDS011;1003;48.002;7.788;2022-07-23T14:25:29;7.72;;;7.03;;
2001;SDS011;1003;48.002;7.788;2022-07-23T14:27:56;7.55;;;6.78;;
2001;SDS011;1003;48.002;7.788;2022-07-23T14:30:23;8.37;;;7.37;;
2001;SDS011;1003;48.002;7.788;2022-07-23T14:32:50;8.20;;;7.37;;
2001;SDS011;1003;48.002;7.788;2022-07-23T14:35:18;8.67;;;7.40;;
2001;SDS011;1003;48.002;7.788;2022-07-23T14:37:45;8.30;;;7.23;;
2001;SDS011;1003;48.002;7.788;2022-07-23T14:40:12;7.93;;;6.60;;
2001;SDS011;1003;48.002;7.788;2022-07-23T14:42:40;7.10;;;6.40;;
2001;SDS011;1003;48.002;7.788;2022-07-23T14:45:08;7.28;;;6.57;;
2001;SDS011;1003;48.002;7.788;2022-07-23T14:47:36;8.70;;;7.68;;
2001;SDS011;1003;48.002;7.788;2022-07-23T14:50:03;8.60;;;7.35;;
2001;SDS011;1003;48.002;7.788;2022-07-23T14:52:32;7.50;;;6.80;;
2001;SDS011;1003;48.002;7.788;2022-07-23T14:55:00;7.65;;;6.95;;
2001;SDS011;1003;48.002;7.788;2022-07-23T14:57:27;7.50;;;6.80;;
2001;SDS011;1003;48.002;7.788;2022-07-23T14:59:57;7.90;;;7.10;;
2001;SDS011;1003;48.002;7.788;2022-07-23T15:02:24;7.90;;;7.10;;
2001;SDS011;1003;48.002;7.788;2022-07-23T15:04:51;7.97;;;7.18;;
2001;SDS011;1003;48.002;7.788;2022-07-23T15:07:18;7.32;;;6.63;;
2001;SDS011;1003;48.002;7.788;2022-07-23T15:09:45;7.72;;;7.03;;
2001;SDS011;1003;48.002;7.788;2022-07-23T15:12:12;7.50;;;6.67;;
2001;SDS011;1003;48.002;7.788;2022-07-23T15:14:40;7.30;;;6.57;;
2001;SDS011;1003;48.002;7.788;2022-07-23T15:17:08;7.83;;;7.03;;
2001;SDS011;1003;48.002;7.788;2022-07-23T15:19:35;8.27;;;7.38;;
2001;SDS011;1003;48.002;7.788;2022-07-23T15:22:03;8.05;;;7.25;;
2001;SDS011;1003;48.002;7.788;2022-07-23T15:24:30;8.37;;;7.10;;
2001;SDS011;1003;48.002;7.788;2022-07-23T15:26:57;6.90;;;6.20;;
2001;SDS011;1003;48.002;7.788;2022-07-23T15:29:25;7.43;;;6.67;;
2001;SDS011;1003;48.002;7.788;2022-07-23T15:31:52;8.00;;;7.13;;
2001;SDS011;1003;48.002;7.788;2022-07-23T15:34:20;6.90;;;6.20;;
2001;SDS011;1003;48.002;7.788;2022-07-23T15:36:47;7.17;;;6.47;;